Time;durP1;ratioP1;P1;durP2;ratioP2;P2;SDS_P1;SDS_P2;PMS_P1;PMS_P2;Temp;Humidity;BMP_temperature;BMP_pressure;BME280_temperature;BME280_humidity;BME280_pressure;Samples;Min_cycle;Max_cycle;Signal;HPM_P1;HPM_P2
2022/09/23 00:01:15;;;;;;;8.07;1.30;;;;;;;11.89;86.14;101098.06;5051733;28;20040;-44
2022/09/23 00:03:47;;;;;;;6.05;1.02;;;;;;;11.88;86.05;101090.09;5049782;28;20041;-45
2022/09/23 00:06:19;;;;;;;;;;;;;;;11.85;86.12;101101.88;5052183;28;20063;-48
2022/09/23 00:08:48;;;;;;;3.30;1.08;;;;;;;11.83;86.04;101098.63;5051782;28;20318;-46
2022/09/23 00:11:19;;;;;;;3.03;1.25;;;;;;;11.79;86.06;101097.69;5049973;28;20495;-51
2022/09/23 00:13:47;;;;;;;3.55;1.33;;;;;;;11.77;86.13;101094.47;5039528;28;20056;-44
2022/09/23 00:16:27;;;;;;;7.47;3.25;;;;;;;11.73;86.17;101094.34;5051154;28;20044;-47
2022/09/23 00:18:54;;;;;;;4.80;1.15;;;;;;;11.69;86.27;101096.19;5048599;28;20087;-44
2022/09/23 00:21:21;;;;;;;4.50;1.02;;;;;;;11.67;86.35;101094.88;5051334;28;20079;-47
2022/09/23 00:23:49;;;;;;;7.03;0.85;;;;;;;11.63;86.45;101101.13;5051152;28;20502;-47
2022/09/23 00:26:19;;;;;;;6.03;1.20;;;;;;;11.59;86.32;101099.38;5050442;28;20033;-45
2022/09/23 00:28:48;;;;;;;7.10;1.20;;;;;;;11.59;86.37;101096.59;5049862;28;20045;-43
2022/09/23 00:31:20;;;;;;;4.10;1.00;;;;;;;11.57;86.64;101096.13;5049563;28;20051;-44
2022/09/23 00:33:51;;;;;;;6.80;1.10;;;;;;;11.56;86.50;101098.09;5036660;28;20048;-52
2022/09/23 00:36:18;;;;;;;3.38;1.00;;;;;;;11.55;86.46;101096.47;5051495;28;20051;-44
2022/09/23 00:38:45;;;;;;;4.45;1.90;;;;;;;11.51;86.59;101097.50;5050709;28;20491;-46
2022/09/23 00:41:16;;;;;;;4.82;1.27;;;;;;;11.49;86.74;101088.72;5050819;28;20068;-45
2022/09/23 00:43:46;;;;;;;5.45;2.05;;;;;;;11.48;86.79;101106.50;5049009;28;20175;-45
2022/09/23 00:46:17;;;;;;;3.92;1.40;;;;;;;11.48;86.83;101089.88;5050646;28;20037;-46
2022/09/23 00:48:53;;;;;;;4.40;1.13;;;;;;;11.45;86.59;101094.13;5046301;28;20053;-44
2022/09/23 00:51:23;;;;;;;9.50;1.65;;;;;;;11.45;86.75;101085.00;5044378;28;20095;-45
2022/09/23 00:53:51;;;;;;;4.55;1.45;;;;;;;11.45;86.65;101088.59;5045739;28;20057;-45
2022/09/23 00:56:21;;;;;;;8.30;1.85;;;;;;;11.43;86.62;101096.47;5032685;28;20052;-46
2022/09/23 00:58:49;;;;;;;3.38;1.50;;;;;;;11.39;86.68;101084.41;5046740;28;20518;-48
2022/09/23 01:01:18;;;;;;;6.78;1.50;;;;;;;11.37;86.79;101095.03;5044216;28;20053;-47
2022/09/23 01:03:45;;;;;;;21.48;4.25;;;;;;;11.35;86.60;101089.03;5045652;28;20056;-45
2022/09/23 01:06:14;;;;;;;8.15;1.55;;;;;;;11.33;86.91;101090.53;5026070;28;20607;-44
2022/09/23 01:08:45;;;;;;;7.13;1.92;;;;;;;11.34;86.99;101098.50;5048176;28;20131;-48
2022/09/23 01:11:18;;;;;;;2.80;1.40;;;;;;;11.32;86.64;101095.25;5047479;28;20037;-43
2022/09/23 01:14:02;;;;;;;8.15;1.90;;;;;;;11.32;86.83;101089.72;5045356;28;20064;-45
2022/09/23 01:16:36;;;;;;;5.43;1.58;;;;;;;11.30;86.53;101096.75;5048402;28;20045;-44
2022/09/23 01:19:34;;;;;;;7.18;2.15;;;;;;;11.28;86.74;101102.63;5028106;28;20055;-44
2022/09/23 01:22:01;;;;;;;5.65;1.35;;;;;;;11.30;86.42;101105.88;5050297;28;20051;-45
2022/09/23 01:24:45;;;;;;;9.45;1.65;;;;;;;11.27;86.61;101109.34;5049798;28;20053;-48
2022/09/23 01:27:33;;;;;;;5.07;1.55;;;;;;;11.24;86.55;101110.00;5050533;28;20051;-44
2022/09/23 01:30:29;;;;;;;7.28;2.08;;;;;;;11.21;86.62;101116.22;5048046;28;20045;-44
2022/09/23 01:33:07;;;;;;;4.13;2.45;;;;;;;11.21;86.66;101109.88;5033860;28;20059;-46
2022/09/23 01:35:54;;;;;;;3.70;1.45;;;;;;;11.20;86.52;101120.13;5049921;28;20047;-46
2022/09/23 01:39:01;;;;;;;8.15;1.58;;;;;;;11.15;86.65;101112.03;5050032;28;20041;-46
2022/09/23 01:41:56;;;;;;;6.82;1.80;;;;;;;11.10;86.66;101111.44;5035041;28;20045;-48
2022/09/23 01:44:33;;;;;;;3.47;1.70;;;;;;;11.08;86.89;101119.28;5049833;28;20045;-44
2022/09/23 01:47:17;;;;;;;6.32;1.60;;;;;;;11.05;87.02;101114.41;5046459;28;20056;-46
2022/09/23 01:50:00;;;;;;;11.48;1.80;;;;;;;11.05;87.17;101106.91;5046302;28;20409;-45
2022/09/23 01:52:40;;;;;;;3.97;1.23;;;;;;;11.03;87.15;101112.00;5044947;28;20075;-44
2022/09/23 01:55:15;;;;;;;4.57;1.42;;;;;;;11.01;87.26;101106.00;5048610;28;20053;-44
2022/09/23 01:57:48;;;;;;;8.13;1.42;;;;;;;11.02;87.33;101107.59;5041413;28;20053;-43
2022/09/23 02:00:18;;;;;;;10.23;3.35;;;;;;;11.00;87.23;101110.72;5049784;28;20076;-44
2022/09/23 02:02:51;;;;;;;14.63;3.83;;;;;;;11.00;87.20;101115.44;5041670;28;20522;-44
2022/09/23 02:05:26;;;;;;;10.80;4.53;;;;;;;10.99;87.21;101116.59;5042307;28;20071;-44
2022/09/23 02:08:02;;;;;;;13.50;5.75;;;;;;;10.96;87.11;101117.28;5046440;28;20051;-50
2022/09/23 02:10:45;;;;;;;11.55;4.95;;;;;;;10.91;87.20;101106.38;5038437;28;20151;-44
2022/09/23 02:13:19;;;;;;;12.55;5.38;;;;;;;10.90;87.26;101110.31;5043163;28;20487;-44
2022/09/23 02:15:53;;;;;;;16.13;5.68;;;;;;;10.83;87.14;101107.25;5041489;28;20056;-47
2022/09/23 02:18:23;;;;;;;16.90;6.32;;;;;;;10.77;87.30;101108.63;5044645;28;20071;-46
2022/09/23 02:20:54;;;;;;;10.50;4.97;;;;;;;10.75;87.50;101102.63;5047843;28;20037;-49
2022/09/23 02:23:35;;;;;;;14.27;5.10;;;;;;;10.76;87.50;101098.69;5048526;28;20124;-48
2022/09/23 02:26:15;;;;;;;25.33;6.32;;;;;;;10.72;87.37;101097.75;5046949;28;20032;-44
2022/09/23 02:28:42;;;;;;;15.95;7.97;;;;;;;10.74;87.43;101106.53;5048814;28;20056;-46
2022/09/23 02:31:42;;;;;;;15.93;6.38;;;;;;;10.72;87.21;101100.53;5043703;28;20136;-47
2022/09/23 02:34:46;;;;;;;16.63;5.40;;;;;;;10.69;87.12;101103.97;5043987;28;20041;-45
2022/09/23 02:37:28;;;;;;;12.63;5.15;;;;;;;10.65;87.37;101108.53;5048774;28;20515;-50
2022/09/23 02:40:10;;;;;;;10.75;3.00;;;;;;;10.63;87.19;101111.66;5048110;28;20069;-45
2022/09/23 02:42:49;;;;;;;9.10;2.45;;;;;;;10.60;87.19;101111.53;5045937;28;20045;-47
2022/09/23 02:45:16;;;;;;;4.68;2.22;;;;;;;10.52;87.38;101106.84;5049049;28;20053;-44
2022/09/23 02:47:47;;;;;;;7.22;3.08;;;;;;;10.46;87.68;101105.44;5042814;28;20040;-43
2022/09/23 02:50:14;;;;;;;7.13;2.50;;;;;;;10.42;87.77;101104.47;5042454;28;20041;-45
2022/09/23 02:52:41;;;;;;;7.97;2.30;;;;;;;10.37;87.88;101108.25;5046438;28;20045;-46
2022/09/23 02:55:10;;;;;;;5.20;2.20;;;;;;;10.40;87.96;101110.34;5043466;28;20037;-44
2022/09/23 02:57:37;;;;;;;6.22;2.20;;;;;;;10.38;88.06;101109.84;5046553;28;20418;-45
2022/09/23 03:00:05;;;;;;;4.45;2.75;;;;;;;10.37;88.15;101109.06;5046832;28;20064;-49
2022/09/23 03:02:32;;;;;;;7.47;2.88;;;;;;;10.38;88.24;101115.41;5069688;22;20252;-45
2022/09/23 03:05:36;;;;;;;6.55;1.98;;;;;;;10.35;88.11;101110.56;5037297;28;20596;-43
2022/09/23 03:08:36;;;;;;;9.10;1.90;;;;;;;10.32;88.09;101114.81;5041717;28;20049;-44
2022/09/23 03:11:12;;;;;;;8.57;1.90;;;;;;;10.29;88.10;101118.25;5046369;28;20094;-44
2022/09/23 03:13:54;;;;;;;5.82;2.55;;;;;;;10.25;88.11;101120.03;5039015;28;20110;-43
2022/09/23 03:16:41;;;;;;;5.47;2.38;;;;;;;10.22;88.23;101112.41;5042291;28;20391;-43
2022/09/23 03:19:37;;;;;;;4.70;2.33;;;;;;;10.20;88.37;101111.94;5043129;28;20045;-45
2022/09/23 03:22:25;;;;;;;7.05;1.92;;;;;;;10.16;88.46;101110.16;5033482;28;21636;-47
2022/09/23 03:24:58;;;;;;;3.50;2.28;;;;;;;10.14;88.44;101115.22;5046768;28;20041;-43
2022/09/23 03:27:28;;;;;;;17.45;2.47;;;;;;;10.11;88.64;101116.66;5044746;28;20049;-44
2022/09/23 03:29:56;;;;;;;10.25;2.00;;;;;;;10.12;88.76;101112.78;5047576;28;20069;-43
2022/09/23 03:32:27;;;;;;;7.35;2.42;;;;;;;10.13;88.60;101103.34;5021794;28;20087;-44
2022/09/23 03:34:56;;;;;;;3.60;1.55;;;;;;;10.13;88.70;101113.59;5045790;28;20048;-48
2022/09/23 03:37:30;;;;;;;6.47;2.17;;;;;;;10.10;88.69;101117.00;5037526;28;20131;-46
2022/09/23 03:40:15;;;;;;;8.68;2.65;;;;;;;10.05;88.66;101109.69;5044344;28;20546;-45
2022/09/23 03:42:42;;;;;;;5.72;1.98;;;;;;;10.08;89.05;101116.53;5044618;28;20087;-45
2022/09/23 03:45:17;;;;;;;6.63;1.80;;;;;;;10.06;89.01;101108.53;5044277;28;20049;-45
2022/09/23 03:47:44;;;;;;;7.25;1.92;;;;;;;10.06;89.07;101114.06;5042110;28;20052;-45
2022/09/23 03:50:12;;;;;;;11.40;2.15;;;;;;;10.06;89.04;101108.53;5047580;28;20479;-45
2022/09/23 03:52:39;;;;;;;8.70;3.08;;;;;;;10.04;88.72;101110.03;5043221;28;20487;-43
2022/09/23 03:55:07;;;;;;;14.52;3.67;;;;;;;10.02;89.01;101113.13;5044405;28;20490;-50
2022/09/23 03:57:34;;;;;;;8.20;2.97;;;;;;;10.00;89.16;101109.91;5033597;28;20049;-46
2022/09/23 04:00:03;;;;;;;6.63;1.90;;;;;;;9.99;89.29;101108.25;5044706;28;20126;-46
2022/09/23 04:02:30;;;;;;;3.15;1.65;;;;;;;10.01;89.25;101111.50;5042667;28;20045;-43
2022/09/23 04:04:57;;;;;;;5.80;2.40;;;;;;;10.02;89.23;101107.59;5047258;28;20122;-45
2022/09/23 04:07:24;;;;;;;8.02;2.30;;;;;;;10.02;89.24;101110.38;5044056;28;20136;-44
2022/09/23 04:09:51;;;;;;;3.67;1.85;;;;;;;10.03;89.31;101111.19;5047875;28;20037;-43
2022/09/23 04:12:18;;;;;;;5.95;2.35;;;;;;;10.03;89.44;101113.94;5051642;28;20056;-43
2022/09/23 04:14:45;;;;;;;8.88;1.92;;;;;;;10.01;89.61;101117.03;5048862;28;20513;-44
2022/09/23 04:17:12;;;;;;;3.38;1.73;;;;;;;10.02;89.90;101123.38;5043215;28;20051;-47
2022/09/23 04:19:39;;;;;;;6.35;1.80;;;;;;;10.05;90.01;101123.53;5050789;28;20060;-49
2022/09/23 04:22:06;;;;;;;7.88;2.72;;;;;;;10.05;89.86;101118.00;5051598;28;20056;-47
2022/09/23 04:24:33;;;;;;;8.55;2.45;;;;;;;10.05;90.04;101112.47;5051401;28;20126;-43
2022/09/23 04:27:01;;;;;;;4.38;2.38;;;;;;;10.04;89.78;101121.91;5051685;28;20053;-45
2022/09/23 04:29:28;;;;;;;3.80;1.48;;;;;;;10.02;89.94;101123.38;5051095;28;20378;-44
2022/09/23 04:31:56;;;;;;;5.30;1.65;;;;;;;10.01;90.06;101122.56;5046894;28;20537;-43
2022/09/23 04:34:23;;;;;;;4.18;1.90;;;;;;;9.98;90.06;101131.53;5051225;28;20045;-45
2022/09/23 04:36:50;;;;;;;8.20;2.40;;;;;;;9.99;90.11;101124.84;5051101;28;20508;-43
2022/09/23 04:39:17;;;;;;;7.20;2.40;;;;;;;9.95;90.20;101118.38;5050640;28;20577;-49
2022/09/23 04:41:44;;;;;;;9.55;2.90;;;;;;;9.94;90.25;101127.00;5047560;28;20165;-45
2022/09/23 04:44:12;;;;;;;8.43;2.05;;;;;;;9.92;90.39;101130.09;5049639;28;20041;-44
2022/09/23 04:46:40;;;;;;;6.93;3.05;;;;;;;9.90;90.44;101126.81;5046590;28;20052;-45
2022/09/23 04:49:07;;;;;;;5.93;2.28;;;;;;;9.90;90.39;101129.59;5043428;28;20051;-44
2022/09/23 04:51:34;;;;;;;6.57;1.90;;;;;;;9.89;90.60;101133.53;5051086;28;20060;-42
2022/09/23 04:54:01;;;;;;;10.85;2.08;;;;;;;9.87;90.67;101138.59;5045164;28;20055;-43
2022/09/23 04:56:31;;;;;;;6.18;2.17;;;;;;;9.86;90.61;101134.19;5048963;28;20037;-45
2022/09/23 04:59:00;;;;;;;7.90;2.53;;;;;;;9.83;90.54;101137.59;5047306;28;20041;-44
2022/09/23 05:01:30;;;;;;;4.07;2.20;;;;;;;9.82;90.89;101133.22;5045217;28;20084;-45
2022/09/23 05:04:02;;;;;;;7.93;3.20;;;;;;;9.80;90.83;101141.84;5041383;28;20124;-45
2022/09/23 05:06:31;;;;;;;7.25;2.28;;;;;;;9.81;90.94;101145.44;5049192;28;20045;-45
2022/09/23 05:08:58;;;;;;;4.70;2.22;;;;;;;9.79;91.10;101142.97;5047108;28;20553;-43
2022/09/23 05:11:27;;;;;;;4.95;2.00;;;;;;;9.81;91.12;101148.19;5046119;28;20079;-43
2022/09/23 05:13:54;;;;;;;6.47;2.28;;;;;;;9.79;91.21;101142.97;5040657;28;20051;-48
2022/09/23 05:16:22;;;;;;;7.85;2.40;;;;;;;9.78;91.25;101146.09;5037318;28;20102;-50
2022/09/23 05:18:50;;;;;;;6.47;2.40;;;;;;;9.76;91.31;101142.84;5044366;28;20056;-43
2022/09/23 05:21:23;;;;;;;10.63;3.15;;;;;;;9.74;91.36;101147.91;5045355;28;20045;-44
2022/09/23 05:23:53;;;;;;;7.75;2.53;;;;;;;9.71;91.37;101140.25;5042917;28;20045;-44
2022/09/23 05:26:26;;;;;;;6.97;2.60;;;;;;;9.71;91.56;101140.25;5050482;28;20044;-43
2022/09/23 05:28:53;;;;;;;8.02;2.60;;;;;;;9.71;91.68;101140.25;5036405;28;20041;-45
2022/09/23 05:31:22;;;;;;;7.80;2.55;;;;;;;9.68;91.90;101136.19;5049436;28;20048;-44
2022/09/23 05:33:52;;;;;;;8.02;3.45;;;;;;;9.68;91.98;101144.50;5049469;28;20499;-47
2022/09/23 05:36:20;;;;;;;10.15;2.72;;;;;;;9.67;92.11;101144.81;5050060;28;20037;-46
2022/09/23 05:38:49;;;;;;;9.02;3.05;;;;;;;9.65;92.13;101149.84;5043471;28;20068;-43
2022/09/23 05:41:18;;;;;;;36.63;5.15;;;;;;;9.66;92.05;101144.00;5036177;28;20049;-44
2022/09/23 05:43:50;;;;;;;6.90;2.58;;;;;;;9.65;92.23;101149.84;5049760;28;20387;-43
2022/09/23 05:46:19;;;;;;;9.35;2.90;;;;;;;9.63;92.43;101150.19;5049623;28;20482;-52
2022/09/23 05:48:46;;;;;;;6.10;2.63;;;;;;;9.63;92.31;101149.38;5046188;28;20051;-43
2022/09/23 05:51:16;;;;;;;6.53;2.55;;;;;;;9.62;92.33;101148.56;5048181;28;20127;-43
2022/09/23 05:53:46;;;;;;;8.00;2.92;;;;;;;9.61;92.48;101157.19;5047334;28;20126;-43
2022/09/23 05:56:18;;;;;;;6.90;2.80;;;;;;;9.58;92.50;101157.84;5036993;28;20049;-44
2022/09/23 05:58:48;;;;;;;6.70;2.35;;;;;;;9.58;92.57;101160.63;5045738;28;20127;-44
2022/09/23 06:01:19;;;;;;;8.45;2.30;;;;;;;9.57;92.77;101156.22;5040900;28;20045;-45
2022/09/23 06:03:51;;;;;;;6.60;2.67;;;;;;;9.57;92.91;101161.75;5048105;28;20124;-43
2022/09/23 06:06:20;;;;;;;6.00;2.55;;;;;;;9.58;92.79;101155.09;5049881;28;20041;-51
2022/09/23 06:08:47;;;;;;;4.35;2.05;;;;;;;9.57;92.92;101173.63;5046129;28;20049;-50
2022/09/23 06:11:14;;;;;;;6.70;2.50;;;;;;;9.56;92.90;101171.16;5046072;28;20053;-44
2022/09/23 06:13:41;;;;;;;9.85;2.90;;;;;;;9.57;93.19;101168.09;5043838;28;20052;-46
2022/09/23 06:16:12;;;;;;;12.98;5.15;;;;;;;9.58;92.98;101172.47;5038945;28;20049;-43
2022/09/23 06:18:41;;;;;;;5.28;2.97;;;;;;;9.57;93.06;101167.28;5035993;28;20091;-46
2022/09/23 06:21:11;;;;;;;9.43;3.15;;;;;;;9.58;93.33;101171.69;5047343;28;20076;-44
2022/09/23 06:23:38;;;;;;;9.50;3.40;;;;;;;9.61;93.11;101179.31;5043415;28;20402;-45
2022/09/23 06:26:09;;;;;;;7.00;2.50;;;;;;;9.62;93.22;101178.16;5027976;28;20048;-46
2022/09/23 06:28:38;;;;;;;8.07;3.15;;;;;;;9.58;93.16;101175.22;5040486;28;20044;-44
2022/09/23 06:31:15;;;;;;;6.18;2.92;;;;;;;9.58;93.33;101180.75;5034098;28;20128;-43
2022/09/23 06:33:43;;;;;;;8.77;2.30;;;;;;;9.61;93.46;101176.56;5043234;28;20132;-44
2022/09/23 06:36:12;;;;;;;5.63;2.20;;;;;;;9.62;93.48;101189.22;5044597;28;20394;-46
2022/09/23 06:38:50;;;;;;;6.35;2.10;;;;;;;9.64;93.53;101193.28;5044979;28;20049;-45
2022/09/23 06:41:20;;;;;;;11.93;3.10;;;;;;;9.64;93.53;101190.50;5027565;28;20066;-43
2022/09/23 06:43:47;;;;;;;6.90;3.10;;;;;;;9.65;93.59;101185.78;5046517;28;20048;-45
2022/09/23 06:46:15;;;;;;;7.15;2.85;;;;;;;9.66;93.55;101192.97;5045482;28;20052;-44
2022/09/23 06:48:43;;;;;;;4.53;2.80;;;;;;;9.66;93.64;101187.44;5048895;28;20437;-45
2022/09/23 06:51:20;;;;;;;7.75;3.05;;;;;;;9.68;93.67;101190.69;5048612;28;20721;-46
2022/09/23 06:53:48;;;;;;;7.95;2.50;;;;;;;9.70;93.89;101200.25;5049063;28;20073;-43
2022/09/23 06:56:16;;;;;;;6.32;3.10;;;;;;;9.74;93.87;101205.97;5048690;28;20270;-44
2022/09/23 06:58:43;;;;;;;10.07;3.10;;;;;;;9.78;93.81;101195.84;5048948;28;20045;-48
2022/09/23 07:01:14;;;;;;;8.85;3.58;;;;;;;9.79;93.92;101203.81;5048275;28;20305;-45
2022/09/23 07:03:43;;;;;;;6.30;3.28;;;;;;;9.79;94.00;101192.75;5029809;28;20060;-43
2022/09/23 07:06:10;;;;;;;5.82;3.92;;;;;;;9.82;94.08;101186.56;5058301;28;20068;-43
2022/09/23 07:08:37;;;;;;;10.23;4.20;;;;;;;9.87;94.19;101199.41;5029971;28;20045;-43
2022/09/23 07:11:06;;;;;;;9.88;4.57;;;;;;;9.94;94.20;101193.38;5045653;28;20048;-50
2022/09/23 07:13:33;;;;;;;10.13;4.05;;;;;;;10.00;94.18;101192.88;5018929;28;20487;-45
2022/09/23 07:16:00;;;;;;;10.95;3.88;;;;;;;10.04;94.29;101207.66;5037385;28;20112;-43
2022/09/23 07:18:32;;;;;;;7.32;3.35;;;;;;;10.11;94.33;101207.16;5040546;28;20041;-44
2022/09/23 07:21:13;;;;;;;7.10;3.75;;;;;;;10.14;94.26;101212.84;5042463;28;20057;-44
2022/09/23 07:23:46;;;;;;;13.88;4.55;;;;;;;10.21;94.30;101204.88;5043017;28;20045;-49
2022/09/23 07:26:15;;;;;;;9.15;3.78;;;;;;;10.26;94.27;101213.00;5040697;28;20398;-45
2022/09/23 07:28:42;;;;;;;11.60;4.82;;;;;;;10.34;94.38;101217.69;5041506;28;20057;-46
2022/09/23 07:31:14;;;;;;;5.18;3.28;;;;;;;10.37;94.19;101214.25;5026455;28;20158;-45
2022/09/23 07:33:44;;;;;;;7.72;3.60;;;;;;;10.44;94.38;101218.44;5042094;28;20052;-44
2022/09/23 07:36:13;;;;;;;11.25;4.05;;;;;;;10.49;94.35;101221.00;5048230;28;20049;-46
2022/09/23 07:38:40;;;;;;;7.55;3.60;;;;;;;10.50;94.22;101211.56;5042097;28;20045;-46
2022/09/23 07:41:13;;;;;;;7.82;3.90;;;;;;;10.58;94.48;101219.03;5050539;28;20857;-46
2022/09/23 07:43:40;;;;;;;11.77;3.20;;;;;;;10.58;94.56;101221.78;5043922;28;20056;-45
2022/09/23 07:46:10;;;;;;;6.85;3.47;;;;;;;10.65;94.54;101224.84;5049593;28;20048;-44
2022/09/23 07:48:38;;;;;;;8.07;3.47;;;;;;;10.70;94.50;101221.88;5047060;28;20052;-45
2022/09/23 07:51:29;;;;;;;8.20;3.25;;;;;;;10.70;94.33;101221.88;5046026;28;20052;-47
2022/09/23 07:54:04;;;;;;;9.10;3.17;;;;;;;10.71;94.34;101220.75;5045289;28;20139;-44
2022/09/23 07:56:31;;;;;;;9.02;3.63;;;;;;;10.75;94.52;101221.72;5046621;28;20453;-45
2022/09/23 07:59:02;;;;;;;9.52;3.75;;;;;;;10.78;94.29;101226.56;5024923;28;20045;-49
2022/09/23 08:01:33;;;;;;;9.57;3.58;;;;;;;10.79;94.25;101222.66;5045557;28;20425;-46
2022/09/23 08:04:12;;;;;;;13.20;3.65;;;;;;;10.81;94.47;101225.88;5049815;28;20148;-43
2022/09/23 08:06:41;;;;;;;8.20;3.33;;;;;;;10.85;94.69;101229.63;5048750;28;20064;-47
2022/09/23 08:09:08;;;;;;;11.73;4.53;;;;;;;10.84;94.19;101216.91;5049087;28;20044;-44
2022/09/23 08:11:40;;;;;;;9.57;3.92;;;;;;;10.87;94.44;101221.78;5046975;28;20049;-44
2022/09/23 08:14:12;;;;;;;8.05;3.45;;;;;;;10.95;94.46;101227.28;5047234;28;20068;-46
2022/09/23 08:16:40;;;;;;;11.82;3.67;;;;;;;11.02;94.25;101219.25;5047762;28;20067;-44
2022/09/23 08:19:07;;;;;;;6.47;3.35;;;;;;;11.13;94.05;101218.84;5048922;28;20088;-45
2022/09/23 08:21:37;;;;;;;9.25;3.80;;;;;;;11.15;93.92;101225.66;5048745;28;20053;-45
2022/09/23 08:24:06;;;;;;;8.45;3.50;;;;;;;11.26;94.16;101226.06;5045819;28;20406;-47
2022/09/23 08:26:33;;;;;;;6.05;3.67;;;;;;;11.30;93.90;101225.06;5046801;28;20045;-46
2022/09/23 08:29:00;;;;;;;7.13;3.63;;;;;;;11.39;94.15;101234.13;5028603;28;20045;-44
2022/09/23 08:31:27;;;;;;;5.15;4.10;;;;;;;11.50;93.78;101229.78;5048864;28;20053;-44
2022/09/23 08:33:55;;;;;;;6.30;3.90;;;;;;;11.57;93.49;101238.34;5048562;28;20037;-47
2022/09/23 08:36:23;;;;;;;7.53;3.50;;;;;;;11.65;93.53;101235.88;5047111;28;20045;-46
2022/09/23 08:38:50;;;;;;;6.68;3.85;;;;;;;11.72;93.17;101236.16;5042309;28;20133;-45
2022/09/23 08:41:53;;;;;;;6.10;3.33;;;;;;;11.81;93.20;101234.13;5006726;28;20049;-48
2022/09/23 08:44:27;;;;;;;6.30;3.63;;;;;;;11.92;93.20;101240.84;4924485;28;22060;-49
2022/09/23 08:47:00;;;;;;;5.10;3.50;;;;;;;12.00;93.10;101237.16;5018196;28;20056;-44
2022/09/23 08:49:40;;;;;;;6.93;3.10;;;;;;;12.11;92.98;101238.34;5036997;28;20049;-46
2022/09/23 08:52:17;;;;;;;7.75;3.10;;;;;;;12.14;92.78;101238.47;5046862;28;20052;-47
2022/09/23 08:54:44;;;;;;;3.67;2.67;;;;;;;12.14;92.68;101237.66;5044748;28;20057;-46
2022/09/23 08:57:29;;;;;;;4.28;2.80;;;;;;;12.15;92.74;101242.06;5045740;28;20076;-45
2022/09/23 08:59:56;;;;;;;4.30;2.70;;;;;;;12.30;93.20;101238.63;5051052;28;20052;-45
2022/09/23 09:02:23;;;;;;;6.55;2.95;;;;;;;12.46;92.78;101245.13;5045489;28;20055;-45
2022/09/23 09:04:58;;;;;;;7.00;2.95;;;;;;;12.54;92.39;101252.53;5048389;28;20049;-45
2022/09/23 09:07:29;;;;;;;4.47;2.83;;;;;;;12.49;91.89;101244.44;5047083;28;20455;-45
2022/09/23 09:10:08;;;;;;;4.47;2.47;;;;;;;12.51;91.69;101241.31;5050324;28;20049;-44
2022/09/23 09:12:53;;;;;;;3.85;2.78;;;;;;;12.46;91.48;101250.69;5046147;28;20044;-51
2022/09/23 09:15:22;;;;;;;7.28;2.83;;;;;;;12.52;91.33;101248.50;5046951;28;20083;-50
2022/09/23 09:18:06;;;;;;;2.90;2.25;;;;;;;12.51;91.11;101250.44;5049699;28;20049;-45
2022/09/23 09:20:34;;;;;;;4.18;3.53;;;;;;;12.49;91.10;101247.22;5037425;28;20556;-44
2022/09/23 09:23:18;;;;;;;6.68;4.30;;;;;;;12.51;90.86;101250.44;5044768;28;20483;-50
2022/09/23 09:25:49;;;;;;;7.60;4.00;;;;;;;12.68;90.54;101250.22;5045915;28;20082;-45
2022/09/23 09:28:26;;;;;;;4.30;2.90;;;;;;;13.07;90.45;101251.50;5043753;28;20102;-50
2022/09/23 09:30:58;;;;;;;6.95;3.13;;;;;;;13.61;88.66;101256.72;5047194;28;20132;-52
2022/09/23 09:33:35;;;;;;;;;;;;;;;13.79;87.47;101252.47;5046527;28;20045;-48
2022/09/23 09:36:19;;;;;;;4.70;2.30;;;;;;;13.87;87.63;101254.28;5024266;28;19925;-45
2022/09/23 09:38:46;;;;;;;5.28;2.53;;;;;;;14.12;87.91;101252.16;5043369;28;20049;-51
2022/09/23 09:41:20;;;;;;;4.18;2.42;;;;;;;14.90;85.45;101253.03;5043006;28;20053;-51
2022/09/23 09:43:52;;;;;;;4.97;2.70;;;;;;;15.21;83.36;101252.16;5047998;28;20553;-50
2022/09/23 09:46:28;;;;;;;5.75;3.25;;;;;;;15.19;82.54;101251.72;5047839;28;20044;-47
2022/09/23 09:49:01;;;;;;;6.60;2.95;;;;;;;15.27;81.88;101259.84;5048165;28;20486;-44
2022/09/23 09:51:28;;;;;;;5.28;2.90;;;;;;;15.10;81.79;101251.91;5048023;28;20517;-45
2022/09/23 09:54:16;;;;;;;6.10;3.30;;;;;;;15.06;82.19;101248.22;5036705;28;20045;-44
2022/09/23 09:56:43;;;;;;;5.90;3.22;;;;;;;14.89;81.10;101251.41;5037794;28;20051;-44
2022/09/23 09:59:17;;;;;;;5.32;2.55;;;;;;;15.09;81.93;101250.28;5050313;28;20106;-44
2022/09/23 10:01:45;;;;;;;5.18;2.97;;;;;;;15.76;79.52;101254.59;5031676;28;20057;-44
2022/09/23 10:04:33;;;;;;;7.22;3.30;;;;;;;16.22;78.51;101249.91;5049394;28;20048;-46
2022/09/23 10:07:15;;;;;;;9.85;3.38;;;;;;;16.14;77.92;101250.94;5055067;28;20072;-44
2022/09/23 10:09:48;;;;;;;8.38;3.25;;;;;;;16.25;77.80;101251.97;5048056;28;20088;-47
2022/09/23 10:12:17;;;;;;;5.13;2.60;;;;;;;16.76;75.66;101254.47;5049851;28;20263;-43
2022/09/23 10:14:50;;;;;;;6.13;3.25;;;;;;;16.53;74.60;101257.25;5049307;28;20059;-43
2022/09/23 10:17:21;;;;;;;8.32;4.20;;;;;;;16.04;75.39;101250.75;5047699;28;20090;-43
2022/09/23 10:19:59;;;;;;;5.32;3.38;;;;;;;15.52;76.11;101254.88;5048239;28;20063;-45
2022/09/23 10:22:35;;;;;;;7.20;4.20;;;;;;;15.04;76.86;101258.13;5049025;28;20707;-44
2022/09/23 10:25:08;;;;;;;7.97;4.30;;;;;;;14.87;77.82;101248.19;5045929;28;20049;-44
2022/09/23 10:27:36;;;;;;;6.93;3.75;;;;;;;15.18;77.06;101245.31;5040776;28;20049;-45
2022/09/23 10:30:20;;;;;;;6.93;3.55;;;;;;;15.52;75.46;101248.47;5045248;28;20061;-43
2022/09/23 10:32:49;;;;;;;8.80;3.72;;;;;;;15.71;75.31;101242.91;5051557;28;20048;-45
2022/09/23 10:35:20;;;;;;;5.93;3.53;;;;;;;16.25;73.34;101235.19;5045638;28;20521;-43
2022/09/23 10:37:51;;;;;;;5.43;2.75;;;;;;;16.58;72.13;101244.94;5049224;28;20056;-45
2022/09/23 10:47:33;;;;;;;4.05;2.25;;;;;;;18.28;67.10;101248.91;5040904;28;20037;-48
2022/09/23 10:50:16;;;;;;;4.15;2.35;;;;;;;18.42;66.40;101239.81;5047810;28;20048;-44
2022/09/23 10:52:59;;;;;;;5.75;2.47;;;;;;;18.51;65.87;101243.13;5048861;28;20080;-46
2022/09/23 10:55:44;;;;;;;5.90;2.13;;;;;;;18.68;65.35;101246.09;5048991;28;20049;-47
2022/09/23 10:58:26;;;;;;;3.05;1.95;;;;;;;18.56;65.49;101243.59;5046725;28;20679;-46
2022/09/23 11:01:19;;;;;;;4.90;2.78;;;;;;;18.31;66.58;101234.13;5046089;28;20058;-46
2022/09/23 11:04:08;;;;;;;5.03;2.42;;;;;;;17.95;67.89;101238.53;5012374;28;20056;-47
2022/09/23 11:07:06;;;;;;;7.03;2.45;;;;;;;17.45;69.19;101237.09;5057581;28;20503;-44
2022/09/23 11:09:40;;;;;;;3.40;1.70;;;;;;;17.09;70.33;101235.00;5048043;28;20076;-44
2022/09/23 11:12:40;;;;;;;4.57;1.85;;;;;;;16.77;71.47;101234.50;5048637;28;20522;-50
2022/09/23 11:15:19;;;;;;;3.38;1.65;;;;;;;16.49;72.24;101236.81;5047324;28;20128;-44
2022/09/23 11:18:06;;;;;;;4.28;2.17;;;;;;;16.21;72.94;101239.06;5040503;28;20396;-48
2022/09/23 11:20:39;;;;;;;5.40;1.73;;;;;;;15.98;73.36;101227.88;5042482;28;20041;-44
2022/09/23 11:23:25;;;;;;;6.65;1.67;;;;;;;15.73;73.84;101230.19;5048276;28;20499;-44
2022/09/23 11:26:13;;;;;;;4.10;1.30;;;;;;;15.66;74.67;101223.66;5048881;28;20053;-46
2022/09/23 11:29:02;;;;;;;3.60;1.67;;;;;;;15.61;74.78;101226.75;5048532;28;20057;-43
2022/09/23 11:32:13;;;;;;;3.47;1.15;;;;;;;15.56;75.20;101219.47;5032247;28;20071;-47
2022/09/23 11:35:02;;;;;;;4.20;1.48;;;;;;;15.67;75.84;101216.91;4983790;28;21304;-49
2022/09/23 11:37:35;;;;;;;2.10;1.35;;;;;;;15.76;75.90;101209.09;5034593;28;20041;-44
2022/09/23 11:40:14;;;;;;;5.30;1.00;;;;;;;15.85;75.86;101215.28;5048463;28;20048;-43
2022/09/23 11:42:58;;;;;;;3.13;0.85;;;;;;;15.85;75.56;101206.91;5046797;28;20045;-43
2022/09/23 11:45:31;;;;;;;4.80;0.82;;;;;;;15.93;75.65;101211.44;5048407;28;20064;-44
2022/09/23 11:48:07;;;;;;;3.13;0.98;;;;;;;16.07;75.57;101203.31;5048187;28;20042;-43
2022/09/23 11:50:46;;;;;;;5.18;1.45;;;;;;;16.13;75.16;101210.22;5048559;28;20099;-46
2022/09/23 11:53:21;;;;;;;2.22;0.65;;;;;;;16.19;74.86;101210.72;5040634;28;20503;-49
2022/09/23 11:56:22;;;;;;;6.80;1.30;;;;;;;16.14;74.71;101206.25;5044735;28;20045;-45
2022/09/23 11:59:06;;;;;;;2.38;1.00;;;;;;;16.09;74.61;101198.19;5038973;28;20049;-44
2022/09/23 12:01:36;;;;;;;;;;;;;;;16.04;74.65;101201.28;5045922;28;20049;-47
2022/09/23 12:04:17;;;;;;;2.70;0.85;;;;;;;15.99;74.26;101198.75;5046154;28;19925;-46